sensor_id;sensor_type;location;lat;lon;timestamp;temperature;humidity
18446;DHT22;9352;50.888;4.466;2022-08-20T00:01:16;19.80;99.90
18446;DHT22;9352;50.888;4.466;2022-08-20T00:03:43;19.80;99.90
18446;DHT22;9352;50.888;4.466;2022-08-20T00:06:13;19.80;99.90
18446;DHT22;9352;50.888;4.466;2022-08-20T00:08:42;19.80;99.90
18446;DHT22;9352;50.888;4.466;2022-08-20T00:11:12;19.80;99.90
18446;DHT22;9352;50.888;4.466;2022-08-20T00:13:44;19.80;99.90
18446;DHT22;9352;50.888;4.466;2022-08-20T00:16:14;19.70;99.90
18446;DHT22;9352;50.888;4.466;2022-08-20T00:18:42;19.70;99.90
18446;DHT22;9352;50.888;4.466;2022-08-20T00:21:12;19.60;99.90
18446;DHT22;9352;50.888;4.466;2022-08-20T00:23:41;19.60;99.90
18446;DHT22;9352;50.888;4.466;2022-08-20T00:26:09;19.60;99.90
18446;DHT22;9352;50.888;4.466;2022-08-20T00:28:36;19.60;99.90
18446;DHT22;9352;50.888;4.466;2022-08-20T00:31:07;19.60;99.90
18446;DHT22;9352;50.888;4.466;2022-08-20T00:33:36;19.50;99.90
18446;DHT22;9352;50.888;4.466;2022-08-20T00:36:04;19.50;99.90
18446;DHT22;9352;50.888;4.466;2022-08-20T00:38:34;19.50;99.90
18446;DHT22;9352;50.888;4.466;2022-08-20T00:41:02;19.40;99.90
18446;DHT22;9352;50.888;4.466;2022-08-20T00:43:33;19.40;99.90
18446;DHT22;9352;50.888;4.466;2022-08-20T00:46:02;19.30;99.90
18446;DHT22;9352;50.888;4.466;2022-08-20T00:48:33;19.20;99.90
18446;DHT22;9352;50.888;4.466;2022-08-20T00:51:04;19.20;99.90
18446;DHT22;9352;50.888;4.466;2022-08-20T00:53:33;19.10;99.90
18446;DHT22;9352;50.888;4.466;2022-08-20T00:56:00;19.10;99.90
18446;DHT22;9352;50.888;4.466;2022-08-20T00:58:28;19.10;99.90
18446;DHT22;9352;50.888;4.466;2022-08-20T01:00:55;19.10;99.90
18446;DHT22;9352;50.888;4.466;2022-08-20T01:03:23;19.10;99.90
18446;DHT22;9352;50.888;4.466;2022-08-20T01:05:51;19.10;99.90
18446;DHT22;9352;50.888;4.466;2022-08-20T01:08:20;19.10;99.90
18446;DHT22;9352;50.888;4.466;2022-08-20T01:10:49;19.10;99.90
18446;DHT22;9352;50.888;4.466;2022-08-20T01:13:21;19.10;99.90
18446;DHT22;9352;50.888;4.466;2022-08-20T01:15:51;19.20;99.90
18446;DHT22;9352;50.888;4.466;2022-08-20T01:18:23;19.10;99.90
18446;DHT22;9352;50.888;4.466;2022-08-20T01:20:55;19.10;99.90
18446;DHT22;9352;50.888;4.466;2022-08-20T01:23:28;19.10;99.90
18446;DHT22;9352;50.888;4.466;2022-08-20T01:26:02;19.00;99.90
18446;DHT22;9352;50.888;4.466;2022-08-20T01:28:36;19.00;99.90
18446;DHT22;9352;50.888;4.466;2022-08-20T01:31:04;19.00;99.90
18446;DHT22;9352;50.888;4.466;2022-08-20T01:33:31;19.00;99.90
18446;DHT22;9352;50.888;4.466;2022-08-20T01:35:59;18.90;99.90
18446;DHT22;9352;50.888;4.466;2022-08-20T01:38:26;18.90;99.90
18446;DHT22;9352;50.888;4.466;2022-08-20T01:41:14;18.80;99.90
18446;DHT22;9352;50.888;4.466;2022-08-20T01:43:45;18.90;99.90
18446;DHT22;9352;50.888;4.466;2022-08-20T01:46:12;18.80;99.90
18446;DHT22;9352;50.888;4.466;2022-08-20T01:48:41;18.80;99.90
18446;DHT22;9352;50.888;4.466;2022-08-20T01:51:11;18.70;99.90
18446;DHT22;9352;50.888;4.466;2022-08-20T01:53:42;18.60;99.90
18446;DHT22;9352;50.888;4.466;2022-08-20T01:56:14;18.60;99.90
18446;DHT22;9352;50.888;4.466;2022-08-20T01:58:45;18.50;99.90
18446;DHT22;9352;50.888;4.466;2022-08-20T02:01:22;18.50;99.90
18446;DHT22;9352;50.888;4.466;2022-08-20T02:03:50;18.40;99.90
18446;DHT22;9352;50.888;4.466;2022-08-20T02:06:19;18.40;99.90
18446;DHT22;9352;50.888;4.466;2022-08-20T02:08:51;18.40;99.90
18446;DHT22;9352;50.888;4.466;2022-08-20T02:11:21;18.20;99.90
18446;DHT22;9352;50.888;4.466;2022-08-20T02:13:49;18.20;99.90
18446;DHT22;9352;50.888;4.466;2022-08-20T02:16:19;18.20;99.90
18446;DHT22;9352;50.888;4.466;2022-08-20T02:18:47;18.10;99.90
18446;DHT22;9352;50.888;4.466;2022-08-20T02:21:16;18.10;99.90
18446;DHT22;9352;50.888;4.466;2022-08-20T02:23:43;18.00;99.90
18446;DHT22;9352;50.888;4.466;2022-08-20T02:26:10;18.00;99.90
18446;DHT22;9352;50.888;4.466;2022-08-20T02:28:38;17.90;99.90
18446;DHT22;9352;50.888;4.466;2022-08-20T02:31:05;17.90;99.90
18446;DHT22;9352;50.888;4.466;2022-08-20T02:33:34;17.80;99.90
18446;DHT22;9352;50.888;4.466;2022-08-20T02:36:01;17.80;99.90
18446;DHT22;9352;50.888;4.466;2022-08-20T02:38:28;17.70;99.90
18446;DHT22;9352;50.888;4.466;2022-08-20T02:40:55;17.70;99.90
18446;DHT22;9352;50.888;4.466;2022-08-20T02:43:22;17.70;99.90
18446;DHT22;9352;50.888;4.466;2022-08-20T02:45:50;17.70;99.90
18446;DHT22;9352;50.888;4.466;2022-08-20T02:48:19;17.70;99.90
18446;DHT22;9352;50.888;4.466;2022-08-20T02:50:49;17.60;99.90
18446;DHT22;9352;50.888;4.466;2022-08-20T02:53:16;17.60;99.90
18446;DHT22;9352;50.888;4.466;2022-08-20T02:55:43;17.60;99.90
18446;DHT22;9352;50.888;4.466;2022-08-20T02:58:11;17.60;99.90
18446;DHT22;9352;50.888;4.466;2022-08-20T03:00:38;17.60;99.90
18446;DHT22;9352;50.888;4.466;2022-08-20T03:03:07;17.60;99.90
18446;DHT22;9352;50.888;4.466;2022-08-20T03:05:35;17.50;99.90
18446;DHT22;9352;50.888;4.466;2022-08-20T03:08:04;17.60;99.90
18446;DHT22;9352;50.888;4.466;2022-08-20T03:10:33;17.70;99.90
18446;DHT22;9352;50.888;4.466;2022-08-20T03:13:00;17.80;99.90
18446;DHT22;9352;50.888;4.466;2022-08-20T03:15:28;17.80;99.90
18446;DHT22;9352;50.888;4.466;2022-08-20T03:17:55;17.80;99.90
18446;DHT22;9352;50.888;4.466;2022-08-20T03:20:24;17.90;99.90
18446;DHT22;9352;50.888;4.466;2022-08-20T03:22:53;17.90;99.90
18446;DHT22;9352;50.888;4.466;2022-08-20T03:25:20;17.90;99.90
18446;DHT22;9352;50.888;4.466;2022-08-20T03:27:47;17.90;99.90
18446;DHT22;9352;50.888;4.466;2022-08-20T03:30:16;18.00;99.90
18446;DHT22;9352;50.888;4.466;2022-08-20T03:32:44;17.90;99.90
18446;DHT22;9352;50.888;4.466;2022-08-20T03:35:14;17.80;99.90
18446;DHT22;9352;50.888;4.466;2022-08-20T03:37:42;17.80;99.90
18446;DHT22;9352;50.888;4.466;2022-08-20T03:40:12;17.80;99.90
18446;DHT22;9352;50.888;4.466;2022-08-20T03:42:40;17.70;99.90
18446;DHT22;9352;50.888;4.466;2022-08-20T03:45:09;17.60;99.90
18446;DHT22;9352;50.888;4.466;2022-08-20T03:47:36;17.50;99.90
18446;DHT22;9352;50.888;4.466;2022-08-20T03:50:05;17.60;99.90
18446;DHT22;9352;50.888;4.466;2022-08-20T03:52:32;17.60;99.90
18446;DHT22;9352;50.888;4.466;2022-08-20T03:55:01;17.70;99.90
18446;DHT22;9352;50.888;4.466;2022-08-20T03:57:28;17.70;99.90
18446;DHT22;9352;50.888;4.466;2022-08-20T03:59:54;17.70;99.90
18446;DHT22;9352;50.888;4.466;2022-08-20T04:02:22;17.60;99.90
18446;DHT22;9352;50.888;4.466;2022-08-20T04:04:50;17.50;99.90
18446;DHT22;9352;50.888;4.466;2022-08-20T04:07:19;17.50;99.90
18446;DHT22;9352;50.888;4.466;2022-08-20T04:09:50;17.50;99.90
18446;DHT22;9352;50.888;4.466;2022-08-20T04:12:18;17.40;99.90
18446;DHT22;9352;50.888;4.466;2022-08-20T04:14:45;17.40;99.90
18446;DHT22;9352;50.888;4.466;2022-08-20T04:17:12;17.30;99.90
18446;DHT22;9352;50.888;4.466;2022-08-20T04:19:40;17.30;99.90
18446;DHT22;9352;50.888;4.466;2022-08-20T04:22:07;17.30;99.90
18446;DHT22;9352;50.888;4.466;2022-08-20T04:24:34;17.20;99.90
18446;DHT22;9352;50.888;4.466;2022-08-20T04:27:02;17.20;99.90
18446;DHT22;9352;50.888;4.466;2022-08-20T04:29:31;17.20;99.90
18446;DHT22;9352;50.888;4.466;2022-08-20T04:31:59;17.20;99.90
18446;DHT22;9352;50.888;4.466;2022-08-20T04:34:27;17.10;99.90
18446;DHT22;9352;50.888;4.466;2022-08-20T04:36:54;17.10;99.90
18446;DHT22;9352;50.888;4.466;2022-08-20T04:39:20;17.10;99.90
18446;DHT22;9352;50.888;4.466;2022-08-20T04:41:48;17.10;99.90
18446;DHT22;9352;50.888;4.466;2022-08-20T04:44:15;17.10;99.90
18446;DHT22;9352;50.888;4.466;2022-08-20T04:46:43;17.00;99.90
18446;DHT22;9352;50.888;4.466;2022-08-20T04:49:10;17.10;99.90
18446;DHT22;9352;50.888;4.466;2022-08-20T04:51:37;17.00;99.90
18446;DHT22;9352;50.888;4.466;2022-08-20T04:54:04;17.00;99.90
18446;DHT22;9352;50.888;4.466;2022-08-20T04:56:33;17.00;99.90
18446;DHT22;9352;50.888;4.466;2022-08-20T04:59:03;17.00;99.90
18446;DHT22;9352;50.888;4.466;2022-08-20T05:01:31;17.00;99.90
18446;DHT22;9352;50.888;4.466;2022-08-20T05:03:59;16.90;99.90
18446;DHT22;9352;50.888;4.466;2022-08-20T05:06:31;16.90;99.90
18446;DHT22;9352;50.888;4.466;2022-08-20T05:08:59;17.00;99.90
18446;DHT22;9352;50.888;4.466;2022-08-20T05:11:27;17.00;99.90
18446;DHT22;9352;50.888;4.466;2022-08-20T05:13:54;17.00;99.90
18446;DHT22;9352;50.888;4.466;2022-08-20T05:16:21;17.00;99.90
18446;DHT22;9352;50.888;4.466;2022-08-20T05:18:48;17.00;99.90
18446;DHT22;9352;50.888;4.466;2022-08-20T05:21:18;17.00;99.90
18446;DHT22;9352;50.888;4.466;2022-08-20T05:23:45;17.10;99.90
18446;DHT22;9352;50.888;4.466;2022-08-20T05:26:12;17.10;99.90
18446;DHT22;9352;50.888;4.466;2022-08-20T05:28:41;17.10;99.90
18446;DHT22;9352;50.888;4.466;2022-08-20T05:31:08;17.10;99.90
18446;DHT22;9352;50.888;4.466;2022-08-20T05:33:36;17.10;99.90
18446;DHT22;9352;50.888;4.466;2022-08-20T05:36:04;17.20;99.90
18446;DHT22;9352;50.888;4.466;2022-08-20T05:38:34;17.10;99.90
18446;DHT22;9352;50.888;4.466;2022-08-20T05:41:02;17.20;99.90
18446;DHT22;9352;50.888;4.466;2022-08-20T05:43:29;17.20;99.90
18446;DHT22;9352;50.888;4.466;2022-08-20T05:45:58;17.30;99.90
18446;DHT22;9352;50.888;4.466;2022-08-20T05:48:25;17.30;99.90
18446;DHT22;9352;50.888;4.466;2022-08-20T05:50:53;17.20;99.90
18446;DHT22;9352;50.888;4.466;2022-08-20T05:53:22;17.20;99.90
18446;DHT22;9352;50.888;4.466;2022-08-20T05:55:51;17.30;99.90
18446;DHT22;9352;50.888;4.466;2022-08-20T05:58:20;17.30;99.90
18446;DHT22;9352;50.888;4.466;2022-08-20T06:00:47;17.30;99.90
18446;DHT22;9352;50.888;4.466;2022-08-20T06:03:14;17.30;99.90
18446;DHT22;9352;50.888;4.466;2022-08-20T06:05:59;17.40;99.90
18446;DHT22;9352;50.888;4.466;2022-08-20T06:08:26;17.40;99.90
18446;DHT22;9352;50.888;4.466;2022-08-20T06:10:54;17.50;99.90
18446;DHT22;9352;50.888;4.466;2022-08-20T06:13:21;17.50;99.90
18446;DHT22;9352;50.888;4.466;2022-08-20T06:15:48;17.70;99.90
18446;DHT22;9352;50.888;4.466;2022-08-20T06:18:16;17.80;99.90
18446;DHT22;9352;50.888;4.466;2022-08-20T06:20:43;18.00;99.90
18446;DHT22;9352;50.888;4.466;2022-08-20T06:23:10;18.10;99.90
18446;DHT22;9352;50.888;4.466;2022-08-20T06:25:38;18.20;99.90
18446;DHT22;9352;50.888;4.466;2022-08-20T06:28:06;18.10;99.90
18446;DHT22;9352;50.888;4.466;2022-08-20T06:30:34;18.20;99.90
18446;DHT22;9352;50.888;4.466;2022-08-20T06:33:01;18.30;99.90
18446;DHT22;9352;50.888;4.466;2022-08-20T06:35:29;18.40;99.90
18446;DHT22;9352;50.888;4.466;2022-08-20T06:37:55;18.40;99.90
18446;DHT22;9352;50.888;4.466;2022-08-20T06:40:26;18.50;99.90
18446;DHT22;9352;50.888;4.466;2022-08-20T06:42:54;18.60;99.90
18446;DHT22;9352;50.888;4.466;2022-08-20T06:45:26;18.60;99.90
18446;DHT22;9352;50.888;4.466;2022-08-20T06:47:55;18.70;99.90
18446;DHT22;9352;50.888;4.466;2022-08-20T06:50:25;18.80;99.90
18446;DHT22;9352;50.888;4.466;2022-08-20T06:52:52;18.90;99.90
18446;DHT22;9352;50.888;4.466;2022-08-20T06:55:20;19.00;99.90
18446;DHT22;9352;50.888;4.466;2022-08-20T06:57:55;19.20;99.90
18446;DHT22;9352;50.888;4.466;2022-08-20T07:00:24;19.40;99.90
18446;DHT22;9352;50.888;4.466;2022-08-20T07:02:51;19.50;99.90
18446;DHT22;9352;50.888;4.466;2022-08-20T07:05:18;19.50;99.90
18446;DHT22;9352;50.888;4.466;2022-08-20T07:07:45;19.70;99.90
18446;DHT22;9352;50.888;4.466;2022-08-20T07:10:14;19.80;99.90
18446;DHT22;9352;50.888;4.466;2022-08-20T07:12:41;20.00;99.90
18446;DHT22;9352;50.888;4.466;2022-08-20T07:15:10;20.10;99.90
18446;DHT22;9352;50.888;4.466;2022-08-20T07:17:38;20.10;99.90
18446;DHT22;9352;50.888;4.466;2022-08-20T07:20:07;20.20;99.90
18446;DHT22;9352;50.888;4.466;2022-08-20T07:22:34;20.20;99.90
18446;DHT22;9352;50.888;4.466;2022-08-20T07:25:02;20.20;99.90
18446;DHT22;9352;50.888;4.466;2022-08-20T07:27:30;20.30;99.90
18446;DHT22;9352;50.888;4.466;2022-08-20T07:29:57;20.40;99.90
18446;DHT22;9352;50.888;4.466;2022-08-20T07:32:45;20.20;99.90
18446;DHT22;9352;50.888;4.466;2022-08-20T07:35:13;20.00;99.90
18446;DHT22;9352;50.888;4.466;2022-08-20T07:37:42;19.90;99.90
18446;DHT22;9352;50.888;4.466;2022-08-20T07:40:14;19.80;99.90
18446;DHT22;9352;50.888;4.466;2022-08-20T07:42:41;20.00;99.90
18446;DHT22;9352;50.888;4.466;2022-08-20T07:45:11;20.20;99.90
18446;DHT22;9352;50.888;4.466;2022-08-20T07:47:40;20.30;99.90
18446;DHT22;9352;50.888;4.466;2022-08-20T07:50:10;20.30;99.90
18446;DHT22;9352;50.888;4.466;2022-08-20T07:52:37;20.30;99.90
18446;DHT22;9352;50.888;4.466;2022-08-20T07:55:06;20.20;99.90
18446;DHT22;9352;50.888;4.466;2022-08-20T07:57:34;20.20;99.90
18446;DHT22;9352;50.888;4.466;2022-08-20T08:00:01;20.30;99.90
18446;DHT22;9352;50.888;4.466;2022-08-20T08:02:29;20.40;99.90
18446;DHT22;9352;50.888;4.466;2022-08-20T08:04:55;20.50;99.90
18446;DHT22;9352;50.888;4.466;2022-08-20T08:07:24;20.50;99.90
18446;DHT22;9352;50.888;4.466;2022-08-20T08:09:52;20.60;99.90
18446;DHT22;9352;50.888;4.466;2022-08-20T08:12:19;20.70;99.90
18446;DHT22;9352;50.888;4.466;2022-08-20T08:14:48;20.70;99.90
18446;DHT22;9352;50.888;4.466;2022-08-20T08:17:16;20.70;99.90
18446;DHT22;9352;50.888;4.466;2022-08-20T08:19:46;20.80;99.90
18446;DHT22;9352;50.888;4.466;2022-08-20T08:22:17;20.90;99.90
18446;DHT22;9352;50.888;4.466;2022-08-20T08:24:45;20.90;99.90
18446;DHT22;9352;50.888;4.466;2022-08-20T08:27:13;21.00;99.90
18446;DHT22;9352;50.888;4.466;2022-08-20T08:29:40;21.00;99.90
18446;DHT22;9352;50.888;4.466;2022-08-20T08:32:07;21.10;99.90
18446;DHT22;9352;50.888;4.466;2022-08-20T08:34:36;21.30;99.90
18446;DHT22;9352;50.888;4.466;2022-08-20T08:37:04;21.30;99.90
18446;DHT22;9352;50.888;4.466;2022-08-20T08:39:32;21.50;99.90
18446;DHT22;9352;50.888;4.466;2022-08-20T08:42:01;21.60;99.90
18446;DHT22;9352;50.888;4.466;2022-08-20T08:44:33;21.70;99.90
18446;DHT22;9352;50.888;4.466;2022-08-20T08:47:05;21.70;99.90
18446;DHT22;9352;50.888;4.466;2022-08-20T08:49:43;21.80;99.90
18446;DHT22;9352;50.888;4.466;2022-08-20T08:52:13;22.00;99.90
18446;DHT22;9352;50.888;4.466;2022-08-20T08:54:46;22.30;99.90
18446;DHT22;9352;50.888;4.466;2022-08-20T08:57:14;22.40;99.90
18446;DHT22;9352;50.888;4.466;2022-08-20T08:59:43;22.60;99.90
18446;DHT22;9352;50.888;4.466;2022-08-20T09:02:17;22.70;99.90
18446;DHT22;9352;50.888;4.466;2022-08-20T09:04:45;22.80;99.90
18446;DHT22;9352;50.888;4.466;2022-08-20T09:07:14;22.90;99.90
18446;DHT22;9352;50.888;4.466;2022-08-20T09:09:43;23.10;99.90
18446;DHT22;9352;50.888;4.466;2022-08-20T09:12:15;23.10;99.90
18446;DHT22;9352;50.888;4.466;2022-08-20T09:14:44;23.20;99.90
18446;DHT22;9352;50.888;4.466;2022-08-20T09:17:12;23.30;99.90
18446;DHT22;9352;50.888;4.466;2022-08-20T09:19:42;23.10;99.90
18446;DHT22;9352;50.888;4.466;2022-08-20T09:22:12;23.10;99.90
18446;DHT22;9352;50.888;4.466;2022-08-20T09:24:40;23.10;99.90
18446;DHT22;9352;50.888;4.466;2022-08-20T09:27:07;22.90;99.90
18446;DHT22;9352;50.888;4.466;2022-08-20T09:29:35;23.00;99.90
18446;DHT22;9352;50.888;4.466;2022-08-20T09:32:04;23.30;99.90
18446;DHT22;9352;50.888;4.466;2022-08-20T09:34:34;23.60;99.90
18446;DHT22;9352;50.888;4.466;2022-08-20T09:37:01;24.50;99.90
18446;DHT22;9352;50.888;4.466;2022-08-20T09:39:28;24.70;99.90
18446;DHT22;9352;50.888;4.466;2022-08-20T09:41:55;24.80;99.90
18446;DHT22;9352;50.888;4.466;2022-08-20T09:44:31;24.90;99.90
18446;DHT22;9352;50.888;4.466;2022-08-20T09:46:59;25.10;99.90
18446;DHT22;9352;50.888;4.466;2022-08-20T09:49:26;24.80;99.90
18446;DHT22;9352;50.888;4.466;2022-08-20T09:51:53;24.60;99.90
18446;DHT22;9352;50.888;4.466;2022-08-20T09:54:20;24.40;99.90
18446;DHT22;9352;50.888;4.466;2022-08-20T09:56:47;23.80;99.90
18446;DHT22;9352;50.888;4.466;2022-08-20T09:59:15;23.60;99.90
18446;DHT22;9352;50.888;4.466;2022-08-20T10:01:42;23.50;99.90
18446;DHT22;9352;50.888;4.466;2022-08-20T10:04:10;23.40;99.90
18446;DHT22;9352;50.888;4.466;2022-08-20T10:06:39;23.50;99.90
18446;DHT22;9352;50.888;4.466;2022-08-20T10:09:06;24.50;99.90
18446;DHT22;9352;50.888;4.466;2022-08-20T10:11:33;25.60;99.90
18446;DHT22;9352;50.888;4.466;2022-08-20T10:14:00;26.20;99.90
18446;DHT22;9352;50.888;4.466;2022-08-20T10:16:27;25.60;99.90
18446;DHT22;9352;50.888;4.466;2022-08-20T10:18:53;25.30;99.90
18446;DHT22;9352;50.888;4.466;2022-08-20T10:21:22;25.80;99.90
18446;DHT22;9352;50.888;4.466;2022-08-20T10:23:49;26.80;99.90
18446;DHT22;9352;50.888;4.466;2022-08-20T10:26:16;27.90;99.90
18446;DHT22;9352;50.888;4.466;2022-08-20T10:28:43;27.50;99.90
18446;DHT22;9352;50.888;4.466;2022-08-20T10:31:11;28.00;99.90
18446;DHT22;9352;50.888;4.466;2022-08-20T10:33:39;28.20;99.90
18446;DHT22;9352;50.888;4.466;2022-08-20T10:36:06;28.70;99.90
18446;DHT22;9352;50.888;4.466;2022-08-20T10:38:34;28.90;99.90
18446;DHT22;9352;50.888;4.466;2022-08-20T10:41:01;29.00;99.90
18446;DHT22;9352;50.888;4.466;2022-08-20T10:43:28;28.80;99.90
18446;DHT22;9352;50.888;4.466;2022-08-20T10:45:56;29.30;99.90
18446;DHT22;9352;50.888;4.466;2022-08-20T10:48:23;30.40;99.60
18446;DHT22;9352;50.888;4.466;2022-08-20T10:50:50;30.60;97.60
18446;DHT22;9352;50.888;4.466;2022-08-20T10:53:17;29.50;97.00
18446;DHT22;9352;50.888;4.466;2022-08-20T10:55:45;29.90;97.60
18446;DHT22;9352;50.888;4.466;2022-08-20T10:58:12;30.00;97.30
18446;DHT22;9352;50.888;4.466;2022-08-20T11:00:40;28.90;97.10
18446;DHT22;9352;50.888;4.466;2022-08-20T11:03:07;29.20;97.10
18446;DHT22;9352;50.888;4.466;2022-08-20T11:05:34;30.10;97.30
18446;DHT22;9352;50.888;4.466;2022-08-20T11:08:02;30.70;95.90
18446;DHT22;9352;50.888;4.466;2022-08-20T11:10:30;30.40;94.00
18446;DHT22;9352;50.888;4.466;2022-08-20T11:13:00;29.50;93.90
18446;DHT22;9352;50.888;4.466;2022-08-20T11:15:27;28.30;95.60
18446;DHT22;9352;50.888;4.466;2022-08-20T11:17:54;27.80;96.70
18446;DHT22;9352;50.888;4.466;2022-08-20T11:20:22;27.60;96.50
18446;DHT22;9352;50.888;4.466;2022-08-20T11:22:50;27.30;97.20
18446;DHT22;9352;50.888;4.466;2022-08-20T11:25:18;27.20;97.80
18446;DHT22;9352;50.888;4.466;2022-08-20T11:27:47;27.50;97.70
18446;DHT22;9352;50.888;4.466;2022-08-20T11:30:18;27.00;97.30
18446;DHT22;9352;50.888;4.466;2022-08-20T11:32:46;27.70;95.80
18446;DHT22;9352;50.888;4.466;2022-08-20T11:35:13;28.50;94.30
18446;DHT22;9352;50.888;4.466;2022-08-20T11:37:40;29.50;92.60
18446;DHT22;9352;50.888;4.466;2022-08-20T11:40:08;30.40;92.10
18446;DHT22;9352;50.888;4.466;2022-08-20T11:42:36;30.20;92.60
18446;DHT22;9352;50.888;4.466;2022-08-20T11:45:04;29.90;92.90
18446;DHT22;9352;50.888;4.466;2022-08-20T11:47:32;29.60;93.30
18446;DHT22;9352;50.888;4.466;2022-08-20T11:50:05;28.40;94.00
18446;DHT22;9352;50.888;4.466;2022-08-20T11:52:32;27.40;95.10
18446;DHT22;9352;50.888;4.466;2022-08-20T11:55:00;28.30;95.00
18446;DHT22;9352;50.888;4.466;2022-08-20T11:57:28;28.90;93.90
18446;DHT22;9352;50.888;4.466;2022-08-20T11:59:57;29.90;92.80
18446;DHT22;9352;50.888;4.466;2022-08-20T12:02:25;31.10;91.60
18446;DHT22;9352;50.888;4.466;2022-08-20T12:04:53;31.60;91.30
18446;DHT22;9352;50.888;4.466;2022-08-20T12:07:24;32.60;90.30
18446;DHT22;9352;50.888;4.466;2022-08-20T12:09:51;32.40;89.50
18446;DHT22;9352;50.888;4.466;2022-08-20T12:12:19;32.00;89.80
18446;DHT22;9352;50.888;4.466;2022-08-20T12:14:47;32.00;89.00
18446;DHT22;9352;50.888;4.466;2022-08-20T12:17:17;32.50;89.00
18446;DHT22;9352;50.888;4.466;2022-08-20T12:19:49;33.60;86.10
18446;DHT22;9352;50.888;4.466;2022-08-20T12:22:17;34.10;83.40
18446;DHT22;9352;50.888;4.466;2022-08-20T12:24:44;34.30;80.80
18446;DHT22;9352;50.888;4.466;2022-08-20T12:27:13;34.70;80.00
18446;DHT22;9352;50.888;4.466;2022-08-20T12:29:41;35.00;77.20
18446;DHT22;9352;50.888;4.466;2022-08-20T12:32:09;34.80;77.10
18446;DHT22;9352;50.888;4.466;2022-08-20T12:34:39;34.60;76.00
18446;DHT22;9352;50.888;4.466;2022-08-20T12:37:08;33.20;77.30
18446;DHT22;9352;50.888;4.466;2022-08-20T12:39:38;32.60;75.80
18446;DHT22;9352;50.888;4.466;2022-08-20T12:42:06;31.60;78.60
18446;DHT22;9352;50.888;4.466;2022-08-20T12:44:34;31.70;78.00
18446;DHT22;9352;50.888;4.466;2022-08-20T12:47:06;31.60;79.50
18446;DHT22;9352;50.888;4.466;2022-08-20T12:49:33;30.60;80.50
18446;DHT22;9352;50.888;4.466;2022-08-20T12:52:00;30.20;81.60
18446;DHT22;9352;50.888;4.466;2022-08-20T12:54:26;30.50;80.60
18446;DHT22;9352;50.888;4.466;2022-08-20T12:56:55;30.60;77.90
18446;DHT22;9352;50.888;4.466;2022-08-20T12:59:22;31.80;77.60
18446;DHT22;9352;50.888;4.466;2022-08-20T13:01:49;33.00;76.70
18446;DHT22;9352;50.888;4.466;2022-08-20T13:04:16;34.00;72.60
18446;DHT22;9352;50.888;4.466;2022-08-20T13:06:43;34.10;72.80
18446;DHT22;9352;50.888;4.466;2022-08-20T13:09:10;34.70;71.90
18446;DHT22;9352;50.888;4.466;2022-08-20T13:11:37;35.80;70.10
18446;DHT22;9352;50.888;4.466;2022-08-20T13:14:05;36.60;69.80
18446;DHT22;9352;50.888;4.466;2022-08-20T13:16:32;37.20;66.80
18446;DHT22;9352;50.888;4.466;2022-08-20T13:18:59;37.50;65.50
18446;DHT22;9352;50.888;4.466;2022-08-20T13:21:26;37.10;65.40
18446;DHT22;9352;50.888;4.466;2022-08-20T13:23:53;36.20;66.80
18446;DHT22;9352;50.888;4.466;2022-08-20T13:26:20;36.90;66.00
18446;DHT22;9352;50.888;4.466;2022-08-20T13:28:46;36.40;65.00
18446;DHT22;9352;50.888;4.466;2022-08-20T13:31:15;35.80;65.10
18446;DHT22;9352;50.888;4.466;2022-08-20T13:33:42;36.40;63.40
18446;DHT22;9352;50.888;4.466;2022-08-20T13:36:08;35.70;64.20
18446;DHT22;9352;50.888;4.466;2022-08-20T13:38:35;37.10;63.40
18446;DHT22;9352;50.888;4.466;2022-08-20T13:41:02;38.40;61.20
18446;DHT22;9352;50.888;4.466;2022-08-20T13:43:29;38.10;61.10
18446;DHT22;9352;50.888;4.466;2022-08-20T13:45:56;36.10;62.70
18446;DHT22;9352;50.888;4.466;2022-08-20T13:48:24;36.70;62.90
18446;DHT22;9352;50.888;4.466;2022-08-20T13:50:51;36.90;62.60
18446;DHT22;9352;50.888;4.466;2022-08-20T13:53:18;36.70;62.20
18446;DHT22;9352;50.888;4.466;2022-08-20T13:55:45;35.70;62.50
18446;DHT22;9352;50.888;4.466;2022-08-20T13:58:12;34.50;64.30
18446;DHT22;9352;50.888;4.466;2022-08-20T14:00:38;33.60;65.60
18446;DHT22;9352;50.888;4.466;2022-08-20T14:03:05;32.20;68.00
18446;DHT22;9352;50.888;4.466;2022-08-20T14:05:34;31.40;69.40
18446;DHT22;9352;50.888;4.466;2022-08-20T14:08:06;30.60;71.10
18446;DHT22;9352;50.888;4.466;2022-08-20T14:10:33;30.50;71.80
18446;DHT22;9352;50.888;4.466;2022-08-20T14:13:00;29.90;72.70
18446;DHT22;9352;50.888;4.466;2022-08-20T14:15:28;30.10;72.80
18446;DHT22;9352;50.888;4.466;2022-08-20T14:17:56;31.00;71.40
18446;DHT22;9352;50.888;4.466;2022-08-20T14:20:25;31.40;70.80
18446;DHT22;9352;50.888;4.466;2022-08-20T14:22:53;32.40;68.40
18446;DHT22;9352;50.888;4.466;2022-08-20T14:25:21;31.70;70.00
18446;DHT22;9352;50.888;4.466;2022-08-20T14:27:49;33.90;68.10
18446;DHT22;9352;50.888;4.466;2022-08-20T14:30:19;34.80;66.20
18446;DHT22;9352;50.888;4.466;2022-08-20T14:32:46;33.80;66.60
18446;DHT22;9352;50.888;4.466;2022-08-20T14:35:13;34.50;65.70
18446;DHT22;9352;50.888;4.466;2022-08-20T14:37:42;35.70;64.10
18446;DHT22;9352;50.888;4.466;2022-08-20T14:40:12;36.60;61.80
18446;DHT22;9352;50.888;4.466;2022-08-20T14:42:40;37.10;61.80
18446;DHT22;9352;50.888;4.466;2022-08-20T14:45:09;36.40;60.90
18446;DHT22;9352;50.888;4.466;2022-08-20T14:47:38;35.80;62.20
18446;DHT22;9352;50.888;4.466;2022-08-20T14:50:07;35.90;60.50
18446;DHT22;9352;50.888;4.466;2022-08-20T14:52:35;34.40;62.40
18446;DHT22;9352;50.888;4.466;2022-08-20T14:55:03;32.40;65.40
18446;DHT22;9352;50.888;4.466;2022-08-20T14:57:32;33.50;66.10
18446;DHT22;9352;50.888;4.466;2022-08-20T15:00:00;35.00;64.60
18446;DHT22;9352;50.888;4.466;2022-08-20T15:02:27;36.70;61.60
18446;DHT22;9352;50.888;4.466;2022-08-20T15:04:54;37.90;59.70
18446;DHT22;9352;50.888;4.466;2022-08-20T15:07:22;35.50;61.40
18446;DHT22;9352;50.888;4.466;2022-08-20T15:09:50;34.70;63.10
18446;DHT22;9352;50.888;4.466;2022-08-20T15:12:17;36.70;60.90
18446;DHT22;9352;50.888;4.466;2022-08-20T15:14:45;37.80;59.70
18446;DHT22;9352;50.888;4.466;2022-08-20T15:17:17;35.40;60.90
18446;DHT22;9352;50.888;4.466;2022-08-20T15:19:44;33.90;63.30
18446;DHT22;9352;50.888;4.466;2022-08-20T15:22:11;32.20;66.20
18446;DHT22;9352;50.888;4.466;2022-08-20T15:24:38;32.40;67.00
18446;DHT22;9352;50.888;4.466;2022-08-20T15:27:12;31.60;68.30
18446;DHT22;9352;50.888;4.466;2022-08-20T15:29:40;34.50;64.40
18446;DHT22;9352;50.888;4.466;2022-08-20T15:32:08;35.00;63.90
18446;DHT22;9352;50.888;4.466;2022-08-20T15:34:36;34.00;65.50
18446;DHT22;9352;50.888;4.466;2022-08-20T15:37:07;32.80;65.60
18446;DHT22;9352;50.888;4.466;2022-08-20T15:39:34;31.80;66.30
18446;DHT22;9352;50.888;4.466;2022-08-20T15:42:01;32.00;66.30
18446;DHT22;9352;50.888;4.466;2022-08-20T15:44:28;30.30;70.20
18446;DHT22;9352;50.888;4.466;2022-08-20T15:46:56;29.10;72.30
18446;DHT22;9352;50.888;4.466;2022-08-20T15:49:39;28.30;74.90
18446;DHT22;9352;50.888;4.466;2022-08-20T15:52:06;28.10;76.00